sensor_id;sensor_type;location;lat;lon;timestamp;P1;durP1;ratioP1;P2;durP2;ratioP2
55423;SDS011;41294;42.666;23.350;2023-03-23T00:02:29;34.97;;;22.07;;
55423;SDS011;41294;42.666;23.350;2023-03-23T00:05:04;39.30;;;23.50;;
55423;SDS011;41294;42.666;23.350;2023-03-23T00:07:31;39.23;;;23.07;;
55423;SDS011;41294;42.666;23.350;2023-03-23T00:09:58;35.43;;;22.13;;
55423;SDS011;41294;42.666;23.350;2023-03-23T00:12:24;37.03;;;21.50;;
55423;SDS011;41294;42.666;23.350;2023-03-23T00:14:58;36.37;;;22.60;;
55423;SDS011;41294;42.666;23.350;2023-03-23T00:17:28;39.90;;;21.53;;
55423;SDS011;41294;42.666;23.350;2023-03-23T00:19:54;35.80;;;22.20;;
55423;SDS011;41294;42.666;23.350;2023-03-23T00:22:19;34.10;;;22.40;;
55423;SDS011;41294;42.666;23.350;2023-03-23T00:24:46;46.60;;;23.80;;
55423;SDS011;41294;42.666;23.350;2023-03-23T00:27:12;40.40;;;24.13;;
55423;SDS011;41294;42.666;23.350;2023-03-23T00:29:39;39.57;;;23.77;;
55423;SDS011;41294;42.666;23.350;2023-03-23T00:32:05;48.07;;;25.10;;
55423;SDS011;41294;42.666;23.350;2023-03-23T00:34:37;46.07;;;25.53;;
55423;SDS011;41294;42.666;23.350;2023-03-23T00:37:03;42.07;;;24.50;;
55423;SDS011;41294;42.666;23.350;2023-03-23T00:39:29;55.10;;;25.50;;
55423;SDS011;41294;42.666;23.350;2023-03-23T00:41:54;39.13;;;25.10;;
55423;SDS011;41294;42.666;23.350;2023-03-23T00:44:26;52.10;;;24.97;;
55423;SDS011;41294;42.666;23.350;2023-03-23T00:46:53;41.93;;;25.03;;
55423;SDS011;41294;42.666;23.350;2023-03-23T00:49:21;42.50;;;24.93;;
55423;SDS011;41294;42.666;23.350;2023-03-23T00:51:54;41.10;;;23.43;;
55423;SDS011;41294;42.666;23.350;2023-03-23T00:54:21;40.23;;;23.43;;
55423;SDS011;41294;42.666;23.350;2023-03-23T00:56:47;39.70;;;24.57;;
55423;SDS011;41294;42.666;23.350;2023-03-23T00:59:13;39.13;;;24.80;;
55423;SDS011;41294;42.666;23.350;2023-03-23T01:01:39;37.97;;;23.90;;
55423;SDS011;41294;42.666;23.350;2023-03-23T01:04:05;39.17;;;22.83;;
55423;SDS011;41294;42.666;23.350;2023-03-23T01:06:34;39.27;;;23.27;;
55423;SDS011;41294;42.666;23.350;2023-03-23T01:09:05;37.67;;;23.40;;
55423;SDS011;41294;42.666;23.350;2023-03-23T01:11:32;40.13;;;23.33;;
55423;SDS011;41294;42.666;23.350;2023-03-23T01:13:58;36.17;;;21.83;;
55423;SDS011;41294;42.666;23.350;2023-03-23T01:16:25;38.97;;;22.77;;
55423;SDS011;41294;42.666;23.350;2023-03-23T01:18:50;40.50;;;22.97;;
55423;SDS011;41294;42.666;23.350;2023-03-23T01:21:17;36.27;;;21.70;;
55423;SDS011;41294;42.666;23.350;2023-03-23T01:23:44;37.10;;;22.33;;
55423;SDS011;41294;42.666;23.350;2023-03-23T01:26:11;35.33;;;21.87;;
55423;SDS011;41294;42.666;23.350;2023-03-23T01:28:41;40.10;;;21.77;;
55423;SDS011;41294;42.666;23.350;2023-03-23T01:31:09;41.93;;;22.70;;
55423;SDS011;41294;42.666;23.350;2023-03-23T01:33:39;32.33;;;20.83;;
55423;SDS011;41294;42.666;23.350;2023-03-23T01:36:06;37.93;;;20.80;;
55423;SDS011;41294;42.666;23.350;2023-03-23T01:38:35;33.47;;;20.00;;
55423;SDS011;41294;42.666;23.350;2023-03-23T01:41:01;34.60;;;21.20;;
55423;SDS011;41294;42.666;23.350;2023-03-23T01:43:27;33.47;;;19.40;;
55423;SDS011;41294;42.666;23.350;2023-03-23T01:45:53;34.17;;;20.47;;
55423;SDS011;41294;42.666;23.350;2023-03-23T01:48:26;35.67;;;21.20;;
55423;SDS011;41294;42.666;23.350;2023-03-23T01:53:20;30.53;;;20.03;;
55423;SDS011;41294;42.666;23.350;2023-03-23T01:55:49;32.17;;;20.30;;
55423;SDS011;41294;42.666;23.350;2023-03-23T01:58:19;30.37;;;20.40;;
55423;SDS011;41294;42.666;23.350;2023-03-23T02:00:50;29.97;;;19.63;;
55423;SDS011;41294;42.666;23.350;2023-03-23T02:03:18;31.40;;;19.60;;
55423;SDS011;41294;42.666;23.350;2023-03-23T02:05:44;30.93;;;19.67;;
55423;SDS011;41294;42.666;23.350;2023-03-23T02:08:10;33.60;;;20.57;;
55423;SDS011;41294;42.666;23.350;2023-03-23T02:10:39;28.93;;;19.07;;
55423;SDS011;41294;42.666;23.350;2023-03-23T02:13:06;30.93;;;19.37;;
55423;SDS011;41294;42.666;23.350;2023-03-23T02:15:45;25.43;;;17.80;;
55423;SDS011;41294;42.666;23.350;2023-03-23T02:18:30;33.07;;;17.77;;
55423;SDS011;41294;42.666;23.350;2023-03-23T02:31:46;24.83;;;16.60;;
55423;SDS011;41294;42.666;23.350;2023-03-23T02:34:38;28.50;;;17.50;;
55423;SDS011;41294;42.666;23.350;2023-03-23T02:37:09;27.70;;;18.03;;
55423;SDS011;41294;42.666;23.350;2023-03-23T02:39:48;25.80;;;17.57;;
55423;SDS011;41294;42.666;23.350;2023-03-23T02:42:20;25.80;;;17.43;;
55423;SDS011;41294;42.666;23.350;2023-03-23T02:44:51;28.93;;;18.47;;
55423;SDS011;41294;42.666;23.350;2023-03-23T02:47:24;25.50;;;17.17;;
55423;SDS011;41294;42.666;23.350;2023-03-23T02:49:53;25.43;;;17.43;;
55423;SDS011;41294;42.666;23.350;2023-03-23T02:52:21;28.97;;;18.37;;
55423;SDS011;41294;42.666;23.350;2023-03-23T02:54:50;30.73;;;19.00;;
55423;SDS011;41294;42.666;23.350;2023-03-23T02:57:18;28.43;;;19.67;;
55423;SDS011;41294;42.666;23.350;2023-03-23T02:59:45;35.07;;;20.60;;
55423;SDS011;41294;42.666;23.350;2023-03-23T03:02:17;38.67;;;23.17;;
55423;SDS011;41294;42.666;23.350;2023-03-23T03:04:56;41.07;;;25.77;;
55423;SDS011;41294;42.666;23.350;2023-03-23T03:07:32;51.17;;;29.47;;
55423;SDS011;41294;42.666;23.350;2023-03-23T03:17:41;57.23;;;30.83;;
55423;SDS011;41294;42.666;23.350;2023-03-23T03:20:13;52.40;;;29.63;;
55423;SDS011;41294;42.666;23.350;2023-03-23T03:22:40;54.43;;;28.70;;
55423;SDS011;41294;42.666;23.350;2023-03-23T03:25:08;54.60;;;29.87;;
55423;SDS011;41294;42.666;23.350;2023-03-23T03:27:37;56.63;;;32.13;;
55423;SDS011;41294;42.666;23.350;2023-03-23T03:30:06;62.23;;;33.13;;
55423;SDS011;41294;42.666;23.350;2023-03-23T03:32:36;61.27;;;32.60;;
55423;SDS011;41294;42.666;23.350;2023-03-23T03:35:08;63.07;;;32.93;;
55423;SDS011;41294;42.666;23.350;2023-03-23T03:37:35;63.13;;;32.87;;
55423;SDS011;41294;42.666;23.350;2023-03-23T03:40:06;56.80;;;29.87;;
55423;SDS011;41294;42.666;23.350;2023-03-23T03:42:39;59.13;;;31.90;;
55423;SDS011;41294;42.666;23.350;2023-03-23T03:45:07;60.17;;;31.97;;
55423;SDS011;41294;42.666;23.350;2023-03-23T03:47:36;50.33;;;30.97;;
55423;SDS011;41294;42.666;23.350;2023-03-23T03:50:03;56.43;;;31.63;;
55423;SDS011;41294;42.666;23.350;2023-03-23T03:52:28;57.27;;;30.03;;
55423;SDS011;41294;42.666;23.350;2023-03-23T03:54:54;51.83;;;28.97;;
55423;SDS011;41294;42.666;23.350;2023-03-23T03:57:21;45.77;;;27.00;;
55423;SDS011;41294;42.666;23.350;2023-03-23T03:59:46;46.80;;;26.17;;
55423;SDS011;41294;42.666;23.350;2023-03-23T04:02:12;39.70;;;23.90;;
55423;SDS011;41294;42.666;23.350;2023-03-23T04:04:41;40.43;;;24.60;;
55423;SDS011;41294;42.666;23.350;2023-03-23T04:07:08;38.77;;;23.80;;
55423;SDS011;41294;42.666;23.350;2023-03-23T04:09:36;38.50;;;23.63;;
55423;SDS011;41294;42.666;23.350;2023-03-23T04:12:02;40.50;;;24.80;;
55423;SDS011;41294;42.666;23.350;2023-03-23T04:14:27;46.67;;;25.67;;
55423;SDS011;41294;42.666;23.350;2023-03-23T04:16:53;41.67;;;24.83;;
55423;SDS011;41294;42.666;23.350;2023-03-23T04:19:21;37.83;;;22.83;;
55423;SDS011;41294;42.666;23.350;2023-03-23T04:21:48;36.93;;;23.67;;
55423;SDS011;41294;42.666;23.350;2023-03-23T04:24:14;38.57;;;23.40;;
55423;SDS011;41294;42.666;23.350;2023-03-23T04:26:40;33.33;;;22.07;;
55423;SDS011;41294;42.666;23.350;2023-03-23T04:29:07;35.70;;;23.23;;
55423;SDS011;41294;42.666;23.350;2023-03-23T04:31:33;34.63;;;22.20;;
55423;SDS011;41294;42.666;23.350;2023-03-23T04:33:59;39.73;;;22.10;;
55423;SDS011;41294;42.666;23.350;2023-03-23T04:36:26;33.17;;;21.53;;
55423;SDS011;41294;42.666;23.350;2023-03-23T04:38:54;31.17;;;20.87;;
55423;SDS011;41294;42.666;23.350;2023-03-23T04:41:20;36.53;;;21.23;;
55423;SDS011;41294;42.666;23.350;2023-03-23T04:43:47;33.47;;;20.33;;
55423;SDS011;41294;42.666;23.350;2023-03-23T04:46:17;37.20;;;22.27;;
55423;SDS011;41294;42.666;23.350;2023-03-23T04:48:44;37.93;;;21.27;;
55423;SDS011;41294;42.666;23.350;2023-03-23T04:51:10;36.73;;;21.40;;
55423;SDS011;41294;42.666;23.350;2023-03-23T04:53:37;36.93;;;22.17;;
55423;SDS011;41294;42.666;23.350;2023-03-23T04:58:31;32.07;;;20.50;;
55423;SDS011;41294;42.666;23.350;2023-03-23T05:00:59;35.77;;;20.33;;
55423;SDS011;41294;42.666;23.350;2023-03-23T05:03:25;32.23;;;21.30;;
55423;SDS011;41294;42.666;23.350;2023-03-23T05:05:52;31.57;;;21.37;;
55423;SDS011;41294;42.666;23.350;2023-03-23T05:08:22;32.17;;;20.33;;
55423;SDS011;41294;42.666;23.350;2023-03-23T05:10:56;34.87;;;19.97;;
55423;SDS011;41294;42.666;23.350;2023-03-23T05:13:23;31.97;;;20.53;;
55423;SDS011;41294;42.666;23.350;2023-03-23T05:15:49;31.57;;;19.93;;
55423;SDS011;41294;42.666;23.350;2023-03-23T05:18:15;32.93;;;19.67;;
55423;SDS011;41294;42.666;23.350;2023-03-23T05:20:41;33.20;;;19.50;;
55423;SDS011;41294;42.666;23.350;2023-03-23T05:23:07;30.07;;;17.87;;
55423;SDS011;41294;42.666;23.350;2023-03-23T05:25:34;35.93;;;18.93;;
55423;SDS011;41294;42.666;23.350;2023-03-23T05:28:04;31.93;;;17.63;;
55423;SDS011;41294;42.666;23.350;2023-03-23T05:30:31;26.00;;;16.27;;
55423;SDS011;41294;42.666;23.350;2023-03-23T05:32:56;21.80;;;15.53;;
55423;SDS011;41294;42.666;23.350;2023-03-23T05:35:22;21.40;;;15.60;;
55423;SDS011;41294;42.666;23.350;2023-03-23T05:37:48;26.43;;;16.50;;
55423;SDS011;41294;42.666;23.350;2023-03-23T05:40:13;21.90;;;15.17;;
55423;SDS011;41294;42.666;23.350;2023-03-23T05:42:39;23.93;;;15.00;;
55423;SDS011;41294;42.666;23.350;2023-03-23T05:45:06;21.10;;;14.70;;
55423;SDS011;41294;42.666;23.350;2023-03-23T05:47:38;24.00;;;16.40;;
55423;SDS011;41294;42.666;23.350;2023-03-23T05:50:14;21.67;;;13.73;;
55423;SDS011;41294;42.666;23.350;2023-03-23T05:52:41;24.20;;;15.27;;
55423;SDS011;41294;42.666;23.350;2023-03-23T05:55:06;18.60;;;14.57;;
55423;SDS011;41294;42.666;23.350;2023-03-23T05:57:32;20.27;;;14.40;;
55423;SDS011;41294;42.666;23.350;2023-03-23T05:59:58;24.87;;;14.90;;
55423;SDS011;41294;42.666;23.350;2023-03-23T06:02:24;19.30;;;13.80;;
55423;SDS011;41294;42.666;23.350;2023-03-23T06:04:53;20.77;;;14.83;;
55423;SDS011;41294;42.666;23.350;2023-03-23T06:07:23;17.93;;;13.67;;
55423;SDS011;41294;42.666;23.350;2023-03-23T06:09:49;19.67;;;14.17;;
55423;SDS011;41294;42.666;23.350;2023-03-23T06:12:15;19.87;;;13.20;;
55423;SDS011;41294;42.666;23.350;2023-03-23T06:14:45;17.90;;;12.97;;
55423;SDS011;41294;42.666;23.350;2023-03-23T06:17:16;17.60;;;12.87;;
55423;SDS011;41294;42.666;23.350;2023-03-23T06:19:42;17.20;;;12.90;;
55423;SDS011;41294;42.666;23.350;2023-03-23T06:22:10;16.67;;;12.83;;
55423;SDS011;41294;42.666;23.350;2023-03-23T06:24:36;19.83;;;13.07;;
55423;SDS011;41294;42.666;23.350;2023-03-23T06:27:02;18.50;;;13.27;;
55423;SDS011;41294;42.666;23.350;2023-03-23T06:29:28;17.80;;;13.23;;
55423;SDS011;41294;42.666;23.350;2023-03-23T06:31:58;16.47;;;13.20;;
55423;SDS011;41294;42.666;23.350;2023-03-23T06:34:26;20.80;;;13.53;;
55423;SDS011;41294;42.666;23.350;2023-03-23T06:36:51;24.00;;;15.50;;
55423;SDS011;41294;42.666;23.350;2023-03-23T06:39:17;22.80;;;15.57;;
55423;SDS011;41294;42.666;23.350;2023-03-23T06:41:43;23.37;;;15.03;;
55423;SDS011;41294;42.666;23.350;2023-03-23T06:44:08;22.47;;;14.27;;
55423;SDS011;41294;42.666;23.350;2023-03-23T06:46:38;16.53;;;13.40;;
55423;SDS011;41294;42.666;23.350;2023-03-23T06:49:05;23.80;;;14.60;;
55423;SDS011;41294;42.666;23.350;2023-03-23T06:51:31;22.67;;;14.17;;
55423;SDS011;41294;42.666;23.350;2023-03-23T06:53:57;22.33;;;13.77;;
55423;SDS011;41294;42.666;23.350;2023-03-23T06:56:23;16.73;;;13.43;;
55423;SDS011;41294;42.666;23.350;2023-03-23T06:58:49;21.03;;;14.70;;
55423;SDS011;41294;42.666;23.350;2023-03-23T07:01:14;25.40;;;13.73;;
55423;SDS011;41294;42.666;23.350;2023-03-23T07:03:40;23.53;;;16.73;;
55423;SDS011;41294;42.666;23.350;2023-03-23T07:06:06;24.70;;;16.33;;
55423;SDS011;41294;42.666;23.350;2023-03-23T07:08:33;16.13;;;12.90;;
55423;SDS011;41294;42.666;23.350;2023-03-23T07:10:58;19.03;;;13.27;;
55423;SDS011;41294;42.666;23.350;2023-03-23T07:13:23;16.80;;;12.50;;
55423;SDS011;41294;42.666;23.350;2023-03-23T07:15:50;17.80;;;12.97;;
55423;SDS011;41294;42.666;23.350;2023-03-23T07:18:15;18.07;;;13.30;;
55423;SDS011;41294;42.666;23.350;2023-03-23T07:20:41;18.03;;;12.70;;
55423;SDS011;41294;42.666;23.350;2023-03-23T07:23:08;18.60;;;12.63;;
55423;SDS011;41294;42.666;23.350;2023-03-23T07:25:34;15.87;;;12.90;;
55423;SDS011;41294;42.666;23.350;2023-03-23T07:28:00;19.77;;;13.30;;
55423;SDS011;41294;42.666;23.350;2023-03-23T07:30:27;28.17;;;15.03;;
55423;SDS011;41294;42.666;23.350;2023-03-23T07:32:57;19.60;;;13.90;;
55423;SDS011;41294;42.666;23.350;2023-03-23T07:35:23;21.40;;;14.43;;
55423;SDS011;41294;42.666;23.350;2023-03-23T07:37:50;19.33;;;14.77;;
55423;SDS011;41294;42.666;23.350;2023-03-23T07:40:16;20.58;;;14.70;;
55423;SDS011;41294;42.666;23.350;2023-03-23T07:42:43;24.67;;;15.13;;
55423;SDS011;41294;42.666;23.350;2023-03-23T07:45:12;22.50;;;14.50;;
55423;SDS011;41294;42.666;23.350;2023-03-23T07:47:39;22.17;;;15.23;;
55423;SDS011;41294;42.666;23.350;2023-03-23T07:50:06;21.73;;;14.57;;
55423;SDS011;41294;42.666;23.350;2023-03-23T07:52:35;21.20;;;14.50;;
55423;SDS011;41294;42.666;23.350;2023-03-23T07:55:02;21.93;;;15.47;;
55423;SDS011;41294;42.666;23.350;2023-03-23T07:57:28;18.37;;;14.87;;
55423;SDS011;41294;42.666;23.350;2023-03-23T07:59:55;21.60;;;16.58;;
55423;SDS011;41294;42.666;23.350;2023-03-23T08:02:22;20.70;;;14.83;;
55423;SDS011;41294;42.666;23.350;2023-03-23T08:07:23;20.53;;;15.33;;
55423;SDS011;41294;42.666;23.350;2023-03-23T08:09:48;23.73;;;15.93;;
55423;SDS011;41294;42.666;23.350;2023-03-23T08:12:14;23.03;;;15.53;;
55423;SDS011;41294;42.666;23.350;2023-03-23T08:14:39;24.07;;;16.10;;
55423;SDS011;41294;42.666;23.350;2023-03-23T08:17:07;19.80;;;15.77;;
55423;SDS011;41294;42.666;23.350;2023-03-23T08:19:35;22.93;;;16.13;;
55423;SDS011;41294;42.666;23.350;2023-03-23T08:22:04;21.50;;;14.07;;
55423;SDS011;41294;42.666;23.350;2023-03-23T08:24:31;21.10;;;15.23;;
55423;SDS011;41294;42.666;23.350;2023-03-23T08:26:58;19.00;;;14.40;;
55423;SDS011;41294;42.666;23.350;2023-03-23T08:29:28;20.35;;;14.13;;
55423;SDS011;41294;42.666;23.350;2023-03-23T08:31:54;16.13;;;13.52;;
55423;SDS011;41294;42.666;23.350;2023-03-23T08:34:19;15.90;;;12.95;;
55423;SDS011;41294;42.666;23.350;2023-03-23T08:36:45;21.88;;;14.00;;
55423;SDS011;41294;42.666;23.350;2023-03-23T08:39:11;19.95;;;13.60;;
55423;SDS011;41294;42.666;23.350;2023-03-23T08:41:37;21.95;;;12.30;;
55423;SDS011;41294;42.666;23.350;2023-03-23T08:44:03;53.33;;;25.83;;
55423;SDS011;41294;42.666;23.350;2023-03-23T08:46:30;56.20;;;23.38;;
55423;SDS011;41294;42.666;23.350;2023-03-23T08:48:55;16.40;;;12.98;;
55423;SDS011;41294;42.666;23.350;2023-03-23T08:51:21;17.25;;;11.27;;
55423;SDS011;41294;42.666;23.350;2023-03-23T08:53:46;10.13;;;7.88;;
55423;SDS011;41294;42.666;23.350;2023-03-23T08:56:12;11.57;;;8.23;;
55423;SDS011;41294;42.666;23.350;2023-03-23T08:58:38;6.28;;;5.68;;
55423;SDS011;41294;42.666;23.350;2023-03-23T09:01:05;6.07;;;5.43;;
55423;SDS011;41294;42.666;23.350;2023-03-23T09:03:33;7.32;;;6.63;;
55423;SDS011;41294;42.666;23.350;2023-03-23T09:06:03;8.27;;;7.30;;
55423;SDS011;41294;42.666;23.350;2023-03-23T09:08:31;9.60;;;7.07;;
55423;SDS011;41294;42.666;23.350;2023-03-23T09:10:58;8.07;;;7.10;;
55423;SDS011;41294;42.666;23.350;2023-03-23T09:13:24;8.25;;;7.10;;
55423;SDS011;41294;42.666;23.350;2023-03-23T09:15:49;8.43;;;6.32;;
55423;SDS011;41294;42.666;23.350;2023-03-23T09:18:16;7.95;;;6.03;;
55423;SDS011;41294;42.666;23.350;2023-03-23T09:20:43;9.88;;;7.40;;
55423;SDS011;41294;42.666;23.350;2023-03-23T09:23:08;7.47;;;6.65;;
55423;SDS011;41294;42.666;23.350;2023-03-23T09:25:34;7.75;;;6.40;;
55423;SDS011;41294;42.666;23.350;2023-03-23T09:28:00;10.00;;;7.60;;
55423;SDS011;41294;42.666;23.350;2023-03-23T09:30:29;11.40;;;7.70;;
55423;SDS011;41294;42.666;23.350;2023-03-23T09:32:57;9.07;;;6.70;;
55423;SDS011;41294;42.666;23.350;2023-03-23T09:35:26;10.80;;;7.97;;
55423;SDS011;41294;42.666;23.350;2023-03-23T09:37:53;9.88;;;7.65;;
55423;SDS011;41294;42.666;23.350;2023-03-23T09:40:23;12.93;;;7.38;;
55423;SDS011;41294;42.666;23.350;2023-03-23T09:49:09;7.38;;;6.60;;
55423;SDS011;41294;42.666;23.350;2023-03-23T09:54:22;11.87;;;7.80;;
55423;SDS011;41294;42.666;23.350;2023-03-23T09:56:52;8.43;;;5.53;;
55423;SDS011;41294;42.666;23.350;2023-03-23T09:59:36;7.30;;;5.37;;
55423;SDS011;41294;42.666;23.350;2023-03-23T10:04:41;6.47;;;5.80;;
55423;SDS011;41294;42.666;23.350;2023-03-23T10:07:14;10.13;;;6.37;;
55423;SDS011;41294;42.666;23.350;2023-03-23T10:09:49;7.93;;;6.37;;
55423;SDS011;41294;42.666;23.350;2023-03-23T10:15:04;6.60;;;5.17;;
55423;SDS011;41294;42.666;23.350;2023-03-23T10:17:50;8.60;;;6.53;;
55423;SDS011;41294;42.666;23.350;2023-03-23T10:23:13;10.63;;;7.28;;
55423;SDS011;41294;42.666;23.350;2023-03-23T10:25:45;8.80;;;6.00;;
55423;SDS011;41294;42.666;23.350;2023-03-23T10:31:02;9.82;;;5.82;;
55423;SDS011;41294;42.666;23.350;2023-03-23T10:33:30;9.20;;;6.40;;
55423;SDS011;41294;42.666;23.350;2023-03-23T10:39:00;10.63;;;6.50;;
55423;SDS011;41294;42.666;23.350;2023-03-23T10:41:30;9.38;;;6.20;;
55423;SDS011;41294;42.666;23.350;2023-03-23T10:43:56;8.10;;;5.75;;
55423;SDS011;41294;42.666;23.350;2023-03-23T10:48:47;5.55;;;4.80;;
55423;SDS011;41294;42.666;23.350;2023-03-23T10:51:16;5.88;;;5.28;;
55423;SDS011;41294;42.666;23.350;2023-03-23T10:53:49;8.30;;;5.97;;
55423;SDS011;41294;42.666;23.350;2023-03-23T10:56:26;7.10;;;5.70;;
55423;SDS011;41294;42.666;23.350;2023-03-23T10:58:54;10.70;;;6.13;;
55423;SDS011;41294;42.666;23.350;2023-03-23T11:01:29;7.57;;;5.47;;
55423;SDS011;41294;42.666;23.350;2023-03-23T11:03:56;6.28;;;5.68;;
55423;SDS011;41294;42.666;23.350;2023-03-23T11:06:23;6.75;;;5.97;;
55423;SDS011;41294;42.666;23.350;2023-03-23T11:08:56;7.43;;;5.70;;
55423;SDS011;41294;42.666;23.350;2023-03-23T11:11:27;8.10;;;5.83;;
55423;SDS011;41294;42.666;23.350;2023-03-23T11:16:41;6.65;;;5.95;;
55423;SDS011;41294;42.666;23.350;2023-03-23T11:19:13;5.40;;;4.88;;
55423;SDS011;41294;42.666;23.350;2023-03-23T11:21:40;9.50;;;5.45;;
55423;SDS011;41294;42.666;23.350;2023-03-23T11:24:13;7.50;;;5.97;;
55423;SDS011;41294;42.666;23.350;2023-03-23T11:26:39;6.93;;;5.05;;
55423;SDS011;41294;42.666;23.350;2023-03-23T11:29:13;8.18;;;5.70;;
55423;SDS011;41294;42.666;23.350;2023-03-23T11:34:35;10.15;;;8.32;;
55423;SDS011;41294;42.666;23.350;2023-03-23T11:40:01;5.13;;;4.60;;
55423;SDS011;41294;42.666;23.350;2023-03-23T11:50:54;5.30;;;4.80;;
55423;SDS011;41294;42.666;23.350;2023-03-23T11:58:58;7.50;;;5.90;;
55423;SDS011;41294;42.666;23.350;2023-03-23T12:01:43;6.50;;;5.15;;
55423;SDS011;41294;42.666;23.350;2023-03-23T12:07:21;6.20;;;5.43;;
55423;SDS011;41294;42.666;23.350;2023-03-23T12:09:56;8.02;;;5.50;;
55423;SDS011;41294;42.666;23.350;2023-03-23T12:18:22;6.17;;;5.40;;
55423;SDS011;41294;42.666;23.350;2023-03-23T12:21:15;8.10;;;5.63;;
55423;SDS011;41294;42.666;23.350;2023-03-23T12:24:06;6.00;;;5.40;;
55423;SDS011;41294;42.666;23.350;2023-03-23T12:26:49;6.22;;;5.32;;
55423;SDS011;41294;42.666;23.350;2023-03-23T12:43:15;5.55;;;4.93;;
55423;SDS011;41294;42.666;23.350;2023-03-23T12:51:19;5.93;;;5.25;;
55423;SDS011;41294;42.666;23.350;2023-03-23T12:56:51;6.25;;;5.28;;
55423;SDS011;41294;42.666;23.350;2023-03-23T13:02:27;7.55;;;5.00;;
55423;SDS011;41294;42.666;23.350;2023-03-23T13:08:00;6.90;;;5.10;;
55423;SDS011;41294;42.666;23.350;2023-03-23T13:10:33;6.30;;;5.35;;
55423;SDS011;41294;42.666;23.350;2023-03-23T13:13:06;6.40;;;4.78;;
55423;SDS011;41294;42.666;23.350;2023-03-23T13:16:07;6.85;;;4.90;;
55423;SDS011;41294;42.666;23.350;2023-03-23T13:18:47;6.97;;;5.20;;
55423;SDS011;41294;42.666;23.350;2023-03-23T13:23:49;7.00;;;5.50;;
55423;SDS011;41294;42.666;23.350;2023-03-23T13:26:21;5.80;;;5.20;;
55423;SDS011;41294;42.666;23.350;2023-03-23T13:28:55;6.63;;;5.50;;
55423;SDS011;41294;42.666;23.350;2023-03-23T13:31:37;5.85;;;4.95;;
55423;SDS011;41294;42.666;23.350;2023-03-23T13:39:29;5.65;;;5.00;;
55423;SDS011;41294;42.666;23.350;2023-03-23T13:42:03;5.95;;;4.80;;
55423;SDS011;41294;42.666;23.350;2023-03-23T13:47:46;6.95;;;4.47;;
55423;SDS011;41294;42.666;23.350;2023-03-23T13:50:43;4.55;;;4.15;;
55423;SDS011;41294;42.666;23.350;2023-03-23T13:53:15;5.68;;;4.75;;
55423;SDS011;41294;42.666;23.350;2023-03-23T13:55:50;6.32;;;4.47;;
55423;SDS011;41294;42.666;23.350;2023-03-23T13:58:24;8.65;;;4.97;;
55423;SDS011;41294;42.666;23.350;2023-03-23T14:01:35;5.77;;;5.00;;
55423;SDS011;41294;42.666;23.350;2023-03-23T14:03:43;5.43;;;4.93;;
55423;SDS011;41294;42.666;23.350;2023-03-23T14:06:16;6.47;;;5.07;;
55423;SDS011;41294;42.666;23.350;2023-03-23T14:08:47;5.00;;;4.57;;
55423;SDS011;41294;42.666;23.350;2023-03-23T14:11:18;5.73;;;5.10;;
55423;SDS011;41294;42.666;23.350;2023-03-23T14:21:35;6.57;;;4.80;;
55423;SDS011;41294;42.666;23.350;2023-03-23T14:24:43;4.82;;;4.43;;
55423;SDS011;41294;42.666;23.350;2023-03-23T14:26:51;8.45;;;4.97;;
55423;SDS011;41294;42.666;23.350;2023-03-23T14:29:19;6.57;;;4.90;;
55423;SDS011;41294;42.666;23.350;2023-03-23T14:31:52;7.88;;;4.65;;
55423;SDS011;41294;42.666;23.350;2023-03-23T14:34:21;5.23;;;4.50;;
55423;SDS011;41294;42.666;23.350;2023-03-23T14:36:49;7.50;;;5.27;;
55423;SDS011;41294;42.666;23.350;2023-03-23T14:41:46;7.27;;;5.10;;
55423;SDS011;41294;42.666;23.350;2023-03-23T14:44:17;6.23;;;4.67;;
55423;SDS011;41294;42.666;23.350;2023-03-23T14:46:47;6.90;;;4.93;;
55423;SDS011;41294;42.666;23.350;2023-03-23T14:49:15;6.97;;;4.63;;
55423;SDS011;41294;42.666;23.350;2023-03-23T14:51:49;4.73;;;4.20;;
55423;SDS011;41294;42.666;23.350;2023-03-23T14:54:19;6.32;;;5.00;;
55423;SDS011;41294;42.666;23.350;2023-03-23T14:56:46;6.33;;;4.90;;
55423;SDS011;41294;42.666;23.350;2023-03-23T14:59:12;6.03;;;5.43;;
55423;SDS011;41294;42.666;23.350;2023-03-23T15:01:37;5.33;;;4.60;;
55423;SDS011;41294;42.666;23.350;2023-03-23T15:04:16;5.67;;;4.77;;
55423;SDS011;41294;42.666;23.350;2023-03-23T15:06:52;6.53;;;4.80;;
55423;SDS011;41294;42.666;23.350;2023-03-23T15:09:23;6.40;;;4.03;;
55423;SDS011;41294;42.666;23.350;2023-03-23T15:11:53;5.90;;;4.93;;
55423;SDS011;41294;42.666;23.350;2023-03-23T15:14:22;7.13;;;5.40;;
55423;SDS011;41294;42.666;23.350;2023-03-23T15:16:52;8.65;;;5.05;;
55423;SDS011;41294;42.666;23.350;2023-03-23T15:19:41;5.53;;;4.87;;
55423;SDS011;41294;42.666;23.350;2023-03-23T15:22:27;7.17;;;4.97;;
55423;SDS011;41294;42.666;23.350;2023-03-23T15:25:11;7.67;;;5.70;;
55423;SDS011;41294;42.666;23.350;2023-03-23T15:27:44;11.60;;;5.43;;
55423;SDS011;41294;42.666;23.350;2023-03-23T15:30:19;8.75;;;5.82;;
55423;SDS011;41294;42.666;23.350;2023-03-23T15:33:03;9.57;;;5.70;;
55423;SDS011;41294;42.666;23.350;2023-03-23T15:35:36;6.80;;;4.97;;
55423;SDS011;41294;42.666;23.350;2023-03-23T15:38:05;5.53;;;4.97;;
55423;SDS011;41294;42.666;23.350;2023-03-23T15:40:38;7.33;;;5.83;;
55423;SDS011;41294;42.666;23.350;2023-03-23T15:45:59;6.37;;;4.80;;
55423;SDS011;41294;42.666;23.350;2023-03-23T15:51:10;7.73;;;5.20;;
55423;SDS011;41294;42.666;23.350;2023-03-23T15:53:38;5.53;;;4.87;;
55423;SDS011;41294;42.666;23.350;2023-03-23T15:56:04;7.30;;;4.90;;
55423;SDS011;41294;42.666;23.350;2023-03-23T15:58:32;6.50;;;5.00;;
55423;SDS011;41294;42.666;23.350;2023-03-23T16:00:59;5.83;;;5.07;;
55423;SDS011;41294;42.666;23.350;2023-03-23T16:03:31;14.63;;;5.57;;
55423;SDS011;41294;42.666;23.350;2023-03-23T16:06:01;7.83;;;5.13;;
55423;SDS011;41294;42.666;23.350;2023-03-23T16:08:27;5.83;;;4.63;;
55423;SDS011;41294;42.666;23.350;2023-03-23T16:10:52;5.17;;;4.60;;
55423;SDS011;41294;42.666;23.350;2023-03-23T16:13:18;6.67;;;4.27;;
55423;SDS011;41294;42.666;23.350;2023-03-23T16:15:43;6.40;;;5.00;;
55423;SDS011;41294;42.666;23.350;2023-03-23T16:18:18;4.63;;;4.23;;
55423;SDS011;41294;42.666;23.350;2023-03-23T16:20:45;6.83;;;4.67;;
55423;SDS011;41294;42.666;23.350;2023-03-23T16:23:14;5.43;;;4.27;;
55423;SDS011;41294;42.666;23.350;2023-03-23T16:25:40;5.87;;;4.77;;
55423;SDS011;41294;42.666;23.350;2023-03-23T16:28:08;8.40;;;4.93;;
55423;SDS011;41294;42.666;23.350;2023-03-23T16:30:36;6.83;;;4.70;;
55423;SDS011;41294;42.666;23.350;2023-03-23T16:33:01;6.77;;;5.13;;
55423;SDS011;41294;42.666;23.350;2023-03-23T16:35:27;5.97;;;4.97;;
55423;SDS011;41294;42.666;23.350;2023-03-23T16:37:53;6.73;;;5.27;;
55423;SDS011;41294;42.666;23.350;2023-03-23T16:40:20;11.87;;;5.67;;
55423;SDS011;41294;42.666;23.350;2023-03-23T16:42:47;8.83;;;4.80;;
55423;SDS011;41294;42.666;23.350;2023-03-23T16:45:13;5.50;;;4.87;;
55423;SDS011;41294;42.666;23.350;2023-03-23T16:47:39;9.43;;;4.90;;
55423;SDS011;41294;42.666;23.350;2023-03-23T16:50:06;9.70;;;4.70;;